Nearby METAR Reports

 

CYOW - Ottawa Intl, Ontario, Canada
Distance from station: N 33km
Updated: Sun, 16-Dec-2018 2:00am EST
Partly cloudy
Partly cloudy
 Wind from NE
Wind: NE 15 km/h
Temperature: -4°C
Wind Chill: -9°C
Dew Point: -5°C
Humidity: 93%
Barometer: 30.22 inHg , 1023.4 hPa
Clouds: Partly cloudy
Visibility: 24 km
Cloud details: Partly cloudy 7315 m
2018/12/16 07:00 CYOW 160700Z 04008KT 15SM SCT240 M04/M05 A3022 RMK CS3 SLP241
CYGK - Kingston Arpt, Ontario, Canada
Distance from station: SW 117km
Updated: Sat, 15-Dec-2018 11:00pm EST
NOT Current
Mostly cloudy
Mostly cloudy
 Wind from NNE
Wind: NNE 9 km/h
Temperature: 0°C
Wind Chill: -3°C
Dew Point: -1°C
Humidity: 93%
Barometer: 30.26 inHg , 1024.7 hPa
Clouds: Mostly cloudy
Visibility: 24 km
Cloud details: Mostly cloudy 7315 m
2018/12/16 04:00 CYGK 160400Z 03005KT 15SM BKN240 M00/M01 A3026 RMK CI5 LAST STFD OBS/NEXT 161100 UTC SLP251
KMSS - Massena, New York, USA
Distance from station: E 62km
Updated: Sun, 16-Dec-2018 1:53am EST
Mist, Clear
Mist, Clear
 Wind from calm
Wind: Calm
Temperature: -4°C
Dew Point: -5°C
Humidity: 93%
Barometer: 30.23 inHg , 1023.7 hPa
Summary: Mist
Clouds: Clear
Visibility: 6 km
2018/12/16 06:53 KMSS 160653Z AUTO 00000KT 4SM BR CLR M04/M05 A3023 RMK AO2 SLP242 I1001 T10391050